Virgin Islands National Park, VI

9:59 AM AST on August 30, 2015 (GMT -0400)
NorthSide | | Change Station
CLOSE
Current Station
Personal Weather Station
Location: St Thomas, VI
Elevation: 728 ft
Nearby Weather Stations

Elev 728 ft 18.36 °N, 64.94 °W | Updated 2 seconds ago

Mostly Cloudy
Mostly Cloudy
83.1 °F
Feels Like 94 °F
N
0.0
Wind Variable Wind from East
Gusts 11.0 mph

Today
High -- | Low -- °F
--% Chance of Precip.
Yesterday
High -- | Low -- °F
Precip. -- in
6:04 AM 6:35 PM
Full, 99% visible
Pressure 30.03 in
Visibility 10.0 miles
Clouds Mostly Cloudy 2100 ft
Heat Index 94 °F
Dew Point 78 °F
Humidity 86%
Rainfall 0.14 in
Snow Depth Not available.
UV 4 out of 12
Pollen Not available.
Air Quality Not available.
Flu Activity Not available.
METAR TIST 301353Z AUTO 12010G16KT 10SM BKN021 31/26 A3002 RMK AO2 SLP167 T03110261 TSNO
Pressure 30.03 in
Visibility 10.0 miles
Clouds Mostly Cloudy 2100 ft
Heat Index 94 °F
Dew Point 78 °F
Humidity 86%
Rainfall 0.14 in
Snow Depth Not available.
UV 4 out of 12
Pollen Not available.
Air Quality Not available.
Flu Activity Not available.
METAR TIST 301353Z AUTO 12010G16KT 10SM BKN021 31/26 A3002 RMK AO2 SLP167 T03110261 TSNO

10-Day Weather Forecast

×

Almanac

Astronomy

Aug. 30, 2015 Rise Set
Actual Time
Civil Twilight
Nautical Twilight
Astronomical Twilight
Moon
Length of Visible Light
Length of Day
Tomorrow will be .
, % of the Moon is Illuminated

Today's Extremes

State Highs State Lows

Community

WunderPhotos

Upload Photos

1,850,954 photos uploaded!

WunderBlogs® & News

Nearby

Air Quality

  Air Quality AQ Index Pollutant
Not available.

Snow Depth

Station Depth Elevation

Earthquake Activity

City Distance Mag. Time & Date
Minimum magnitude displayed is 2.5.

Coastal Water Temperatures

Place Temperature

Stations

Nearby Weather Stations

Station Location Temp. Windchill Dew Point Humidity Wind Precip. Elev Updated Type